Time;durP1;ratioP1;P1;durP2;ratioP2;P2;SDS_P1;SDS_P2;PMS_P1;PMS_P2;Temp;Humidity;BMP_temperature;BMP_pressure;BME280_temperature;BME280_humidity;BME280_pressure;Samples;Min_cycle;Max_cycle;Signal;HPM_P1;HPM_P2
2021/11/11 00:01:40;;;;;;;41.30;26.67;;;2.40;99.90;;;;;;4952049;29;20204;-60
2021/11/11 00:04:09;;;;;;;42.57;26.33;;;2.30;99.90;;;;;;4953093;29;20181;-60
2021/11/11 00:06:35;;;;;;;36.28;26.52;;;2.30;99.90;;;;;;4951890;29;20197;-60
2021/11/11 00:09:01;;;;;;;44.37;27.47;;;2.30;99.90;;;;;;4941275;29;20185;-61
2021/11/11 00:11:27;;;;;;;38.40;26.60;;;2.30;99.90;;;;;;4940347;29;20192;-60
2021/11/11 00:13:53;;;;;;;44.27;26.67;;;2.30;99.90;;;;;;4952830;29;20445;-55
2021/11/11 00:16:18;;;;;;;39.42;25.90;;;2.40;99.90;;;;;;4952967;29;20213;-61
2021/11/11 00:18:44;;;;;;;40.50;26.00;;;2.40;99.90;;;;;;4950818;29;20606;-61
2021/11/11 00:21:10;;;;;;;39.63;26.60;;;2.40;99.90;;;;;;4949284;29;20331;-60
2021/11/11 00:23:35;;;;;;;40.63;25.97;;;2.40;99.90;;;;;;4952530;29;20413;-53
2021/11/11 00:26:01;;;;;;;40.77;26.87;;;2.40;99.90;;;;;;4952274;29;20186;-60
2021/11/11 00:28:26;;;;;;;40.57;26.40;;;2.40;99.90;;;;;;4952987;29;20579;-60
2021/11/11 00:30:52;;;;;;;44.60;26.57;;;2.30;99.90;;;;;;4950614;29;20195;-60
2021/11/11 00:33:17;;;;;;;47.13;27.17;;;2.40;99.90;;;;;;4951031;29;20590;-53
2021/11/11 00:35:43;;;;;;;38.93;24.93;;;2.40;99.90;;;;;;4952865;29;20213;-60
2021/11/11 00:38:09;;;;;;;42.57;27.20;;;2.40;99.90;;;;;;4950804;29;20220;-60
2021/11/11 00:40:35;;;;;;;39.87;26.07;;;2.30;99.90;;;;;;4956185;28;20192;-60
2021/11/11 00:43:01;;;;;;;41.55;27.52;;;2.30;99.90;;;;;;4953228;28;20252;-60
2021/11/11 00:45:27;;;;;;;39.70;26.03;;;2.30;99.90;;;;;;4952528;29;20197;-61
2021/11/11 00:47:54;;;;;;;39.25;26.17;;;2.30;99.90;;;;;;4951985;29;20453;-61
2021/11/11 00:50:22;;;;;;;44.92;26.70;;;2.30;99.90;;;;;;4951938;29;20292;-61
2021/11/11 00:52:48;;;;;;;36.63;25.52;;;2.20;99.90;;;;;;4951343;29;20198;-60
2021/11/11 00:55:14;;;;;;;45.25;26.70;;;2.30;99.90;;;;;;4951106;29;20189;-60
2021/11/11 00:57:40;;;;;;;45.35;27.05;;;2.20;99.90;;;;;;4950744;29;20197;-60
2021/11/11 01:00:09;;;;;;;44.97;28.63;;;2.20;99.90;;;;;;4949743;28;20849;-61
2021/11/11 01:02:36;;;;;;;39.97;26.80;;;2.30;99.90;;;;;;4952883;29;20189;-60
2021/11/11 01:05:03;;;;;;;41.70;28.58;;;2.40;99.90;;;;;;4954379;28;20188;-60
2021/11/11 01:07:29;;;;;;;42.05;26.50;;;2.40;99.90;;;;;;4954297;29;20181;-60
2021/11/11 01:09:54;;;;;;;36.57;25.43;;;2.40;99.90;;;;;;4954742;29;20210;-62
2021/11/11 01:12:20;;;;;;;40.20;26.57;;;2.40;99.90;;;;;;4953866;29;20193;-60
2021/11/11 01:14:46;;;;;;;48.33;26.23;;;2.40;99.90;;;;;;4954597;29;20660;-60
2021/11/11 01:17:11;;;;;;;44.67;27.67;;;2.40;99.90;;;;;;4954292;29;20209;-61
2021/11/11 01:19:37;;;;;;;44.90;28.70;;;2.40;99.90;;;;;;4954530;29;20261;-61
2021/11/11 01:22:03;;;;;;;45.10;27.63;;;2.40;99.90;;;;;;4953443;29;20182;-59
2021/11/11 01:24:29;;;;;;;44.92;27.48;;;2.40;99.90;;;;;;4954330;29;20519;-60
2021/11/11 01:26:55;;;;;;;41.87;26.00;;;2.40;99.90;;;;;;4953825;29;20281;-61
2021/11/11 01:29:20;;;;;;;41.87;27.37;;;2.40;99.90;;;;;;4954290;29;20244;-60
2021/11/11 01:31:46;;;;;;;41.87;25.10;;;2.30;99.90;;;;;;4953734;29;20221;-60
2021/11/11 01:34:12;;;;;;;40.27;27.03;;;2.30;99.90;;;;;;4954269;29;20241;-59
2021/11/11 01:36:37;;;;;;;40.97;26.97;;;2.30;99.90;;;;;;4953245;29;20700;-60
2021/11/11 01:39:04;;;;;;;41.67;26.97;;;2.30;99.90;;;;;;4954093;29;20281;-60
2021/11/11 01:41:30;;;;;;;44.67;26.58;;;2.30;99.90;;;;;;4952037;28;20623;-60
2021/11/11 01:43:55;;;;;;;42.90;26.07;;;2.30;99.90;;;;;;4936606;29;20185;-60
2021/11/11 01:46:21;;;;;;;40.80;27.23;;;2.30;99.90;;;;;;4953924;29;20245;-58
2021/11/11 01:48:47;;;;;;;45.57;27.47;;;2.30;99.90;;;;;;4954164;29;20637;-60
2021/11/11 01:51:13;;;;;;;42.80;26.60;;;2.30;99.90;;;;;;4953317;29;20729;-60
2021/11/11 01:53:39;;;;;;;45.17;28.55;;;2.30;99.90;;;;;;4953674;29;20257;-60
2021/11/11 01:56:05;;;;;;;41.80;25.70;;;2.30;99.90;;;;;;4953637;29;20292;-60
2021/11/11 01:58:30;;;;;;;40.50;25.90;;;2.20;99.90;;;;;;4953779;29;20188;-60
2021/11/11 02:00:58;;;;;;;42.17;25.20;;;2.20;99.90;;;;;;4953352;29;20181;-60
2021/11/11 02:03:24;;;;;;;44.67;27.25;;;2.20;99.90;;;;;;4953697;29;20578;-60
2021/11/11 02:05:51;;;;;;;39.07;24.80;;;2.10;99.90;;;;;;4953767;29;20189;-59
2021/11/11 02:08:17;;;;;;;36.53;25.20;;;2.10;99.90;;;;;;4951455;29;20912;-60
2021/11/11 02:10:43;;;;;;;37.63;26.02;;;2.00;99.90;;;;;;4917905;29;20190;-60
2021/11/11 02:13:09;;;;;;;39.50;25.73;;;2.10;99.90;;;;;;4951957;28;20190;-55
2021/11/11 02:15:37;;;;;;;39.20;25.67;;;2.00;99.90;;;;;;4953655;29;20747;-60
2021/11/11 02:18:06;;;;;;;43.28;25.60;;;2.10;99.90;;;;;;4950779;28;20185;-60
2021/11/11 02:20:33;;;;;;;44.58;27.48;;;2.10;99.90;;;;;;4953071;29;20566;-61
2021/11/11 02:23:02;;;;;;;45.20;26.38;;;2.10;99.90;;;;;;4955152;28;20182;-60
2021/11/11 02:25:28;;;;;;;50.35;27.95;;;2.00;99.90;;;;;;4953394;29;20564;-60
2021/11/11 02:28:00;;;;;;;42.45;27.50;;;2.10;99.90;;;;;;4949848;29;20603;-61
2021/11/11 02:30:27;;;;;;;41.38;27.15;;;2.10;99.90;;;;;;4953063;29;20194;-60
2021/11/11 02:32:53;;;;;;;47.15;30.40;;;2.10;99.90;;;;;;4953486;29;21002;-61
2021/11/11 02:35:20;;;;;;;43.70;27.47;;;2.10;99.90;;;;;;4952084;29;20269;-61
2021/11/11 02:37:46;;;;;;;41.33;27.45;;;2.10;99.90;;;;;;4953102;29;20491;-60
2021/11/11 02:40:19;;;;;;;44.13;27.83;;;2.20;99.90;;;;;;4952878;29;20186;-61
2021/11/11 02:42:46;;;;;;;48.22;31.15;;;2.20;99.90;;;;;;4953197;29;20257;-60
2021/11/11 02:45:14;;;;;;;58.95;30.08;;;2.20;99.90;;;;;;4949245;29;20182;-60
2021/11/11 02:47:41;;;;;;;57.13;33.75;;;2.30;99.90;;;;;;4947207;29;20196;-61
2021/11/11 02:50:08;;;;;;;64.35;36.38;;;2.40;99.90;;;;;;4952712;29;20190;-61
2021/11/11 02:52:34;;;;;;;68.20;38.83;;;2.60;99.90;;;;;;4953028;29;20177;-61
2021/11/11 02:55:00;;;;;;;67.23;37.00;;;2.90;99.90;;;;;;4951416;29;20197;-61
2021/11/11 02:57:32;;;;;;;76.60;38.28;;;3.10;99.90;;;;;;4952860;29;20229;-60
2021/11/11 03:00:08;;;;;;;72.30;38.90;;;3.40;99.90;;;;;;4952766;29;20217;-61
2021/11/11 03:02:35;;;;;;;85.57;42.10;;;3.50;99.90;;;;;;4952685;29;20657;-63
2021/11/11 03:05:03;;;;;;;71.40;39.70;;;3.80;99.90;;;;;;4951507;29;20645;-61
2021/11/11 03:07:28;;;;;;;73.72;41.42;;;3.90;99.90;;;;;;4952991;29;20702;-60
2021/11/11 03:09:55;;;;;;;77.90;39.53;;;4.10;99.90;;;;;;4952281;29;20260;-60
2021/11/11 03:12:21;;;;;;;76.00;40.40;;;4.30;99.90;;;;;;4952682;29;20289;-61
2021/11/11 03:14:48;;;;;;;82.47;40.75;;;4.40;99.90;;;;;;4951976;29;20249;-61
2021/11/11 03:17:14;;;;;;;73.63;39.85;;;4.60;99.90;;;;;;4952404;29;20672;-60
2021/11/11 03:19:40;;;;;;;71.63;38.35;;;4.60;99.90;;;;;;4952467;29;20268;-61
2021/11/11 03:22:09;;;;;;;69.43;38.17;;;4.60;99.90;;;;;;4952158;29;20723;-60
2021/11/11 03:24:36;;;;;;;79.38;41.05;;;4.70;99.90;;;;;;4951741;28;20283;-60
2021/11/11 03:27:03;;;;;;;63.35;37.13;;;4.80;99.90;;;;;;4952514;29;20204;-61
2021/11/11 03:29:29;;;;;;;67.57;38.15;;;4.80;99.90;;;;;;4952101;29;20699;-60
2021/11/11 03:31:55;;;;;;;79.25;41.22;;;4.80;99.90;;;;;;4951567;29;20687;-60
2021/11/11 03:34:23;;;;;;;66.97;39.77;;;4.90;99.90;;;;;;4946764;29;20289;-61
2021/11/11 03:36:50;;;;;;;65.68;38.15;;;4.90;99.90;;;;;;4951833;29;20208;-60
2021/11/11 03:39:16;;;;;;;67.53;37.67;;;4.90;99.90;;;;;;4949645;29;20188;-57
2021/11/11 03:41:41;;;;;;;64.25;35.92;;;4.90;99.90;;;;;;4941715;29;20533;-58
2021/11/11 03:44:07;;;;;;;68.20;35.33;;;5.00;99.90;;;;;;4951941;29;20192;-60
2021/11/11 03:46:33;;;;;;;61.00;35.60;;;5.00;99.90;;;;;;4951954;29;20201;-60
2021/11/11 03:48:58;;;;;;;68.93;36.00;;;5.00;99.90;;;;;;4952045;29;20185;-60
2021/11/11 03:51:24;;;;;;;58.93;35.77;;;5.00;99.90;;;;;;4951710;29;20973;-60
2021/11/11 03:53:52;;;;;;;53.83;33.47;;;5.10;99.90;;;;;;4951454;29;20536;-60
2021/11/11 03:56:18;;;;;;;60.75;36.10;;;5.00;99.90;;;;;;4951883;29;20362;-54
2021/11/11 03:58:45;;;;;;;58.58;34.58;;;5.00;99.90;;;;;;4951532;29;20191;-60
2021/11/11 04:01:12;;;;;;;55.63;32.67;;;5.10;99.90;;;;;;4944320;29;20186;-60
2021/11/11 04:03:38;;;;;;;54.28;33.47;;;5.10;99.90;;;;;;4946332;29;20192;-61
2021/11/11 04:06:03;;;;;;;50.40;32.22;;;5.10;99.90;;;;;;4951805;29;20276;-61
2021/11/11 04:08:30;;;;;;;59.20;34.40;;;5.10;99.90;;;;;;4951621;29;20265;-58
2021/11/11 04:10:56;;;;;;;54.55;33.13;;;5.10;99.90;;;;;;4951504;29;20182;-61
2021/11/11 04:13:22;;;;;;;50.50;30.98;;;5.10;99.90;;;;;;4951484;29;20281;-60
2021/11/11 04:15:48;;;;;;;52.67;32.80;;;5.10;99.90;;;;;;4951586;29;20292;-60
2021/11/11 04:18:15;;;;;;;55.47;33.22;;;5.10;99.90;;;;;;4950547;29;20711;-61
2021/11/11 04:20:41;;;;;;;51.20;32.42;;;5.10;99.90;;;;;;4950638;29;20193;-60
2021/11/11 04:23:07;;;;;;;53.47;32.70;;;5.00;99.90;;;;;;4950403;29;20194;-60
2021/11/11 04:25:51;;;;;;;49.33;33.08;;;5.00;99.90;;;;;;4950820;29;20192;-59
2021/11/11 04:28:22;;;;;;;55.03;32.50;;;5.00;99.90;;;;;;4951216;29;20225;-60
2021/11/11 04:30:52;;;;;;;47.80;31.15;;;5.00;99.90;;;;;;4950149;29;20185;-60
2021/11/11 04:33:18;;;;;;;49.70;32.33;;;5.00;99.90;;;;;;4949448;29;20296;-60
2021/11/11 04:35:48;;;;;;;49.20;30.67;;;4.90;99.90;;;;;;4950254;29;20206;-60
2021/11/11 04:46:25;;;;;;;53.97;32.10;;;5.00;99.90;;;;;;4948917;29;20189;-60
2021/11/11 05:04:43;;;;;;;51.22;31.70;;;5.00;99.90;;;;;;4949134;29;20236;-59
2021/11/11 05:07:09;;;;;;;50.00;30.63;;;5.00;99.90;;;;;;4950074;29;20193;-59
2021/11/11 05:09:34;;;;;;;51.27;32.00;;;5.00;99.90;;;;;;4950113;29;20184;-59
2021/11/11 05:12:00;;;;;;;53.63;31.43;;;5.00;99.90;;;;;;4949106;29;20190;-59
2021/11/11 05:14:25;;;;;;;45.80;31.13;;;5.00;99.90;;;;;;4944434;29;20185;-59
2021/11/11 05:16:51;;;;;;;50.80;30.23;;;5.00;99.90;;;;;;4949092;29;20206;-59
2021/11/11 05:19:16;;;;;;;48.37;29.20;;;5.00;99.90;;;;;;4942394;29;20182;-60
2021/11/11 05:21:42;;;;;;;47.60;29.93;;;5.00;99.90;;;;;;4941271;29;20182;-60
2021/11/11 05:24:10;;;;;;;51.97;33.57;;;5.00;99.90;;;;;;4941293;29;20181;-60
2021/11/11 05:26:37;;;;;;;50.72;31.08;;;4.90;99.90;;;;;;4942334;29;21256;-60
2021/11/11 05:29:03;;;;;;;49.53;29.80;;;4.90;99.90;;;;;;4941858;29;20252;-59
2021/11/11 05:31:28;;;;;;;47.97;30.57;;;5.00;99.90;;;;;;4942209;29;20185;-60
2021/11/11 05:33:54;;;;;;;46.57;30.80;;;5.00;99.90;;;;;;4940448;29;20477;-60
2021/11/11 05:36:19;;;;;;;50.93;29.87;;;5.00;99.90;;;;;;4937636;29;20220;-60
2021/11/11 05:38:45;;;;;;;48.77;28.37;;;5.00;99.90;;;;;;4946215;29;20194;-59
2021/11/11 05:41:11;;;;;;;50.90;31.70;;;5.00;99.90;;;;;;4930247;29;20193;-59
2021/11/11 05:43:36;;;;;;;50.37;30.40;;;4.90;99.90;;;;;;4950174;29;20178;-60
2021/11/11 05:46:02;;;;;;;47.03;29.87;;;4.90;99.90;;;;;;4950182;29;20185;-59
2021/11/11 05:48:27;;;;;;;49.20;29.57;;;4.90;99.90;;;;;;4952247;28;20198;-56
2021/11/11 05:50:54;;;;;;;49.50;30.83;;;4.90;99.90;;;;;;4953984;29;20268;-59
2021/11/11 05:53:21;;;;;;;53.25;32.40;;;4.80;99.90;;;;;;4955030;29;20289;-58
2021/11/11 05:55:47;;;;;;;52.50;29.05;;;4.80;99.90;;;;;;4954281;29;20261;-60
2021/11/11 05:58:13;;;;;;;47.17;29.77;;;4.80;99.90;;;;;;4954479;29;21338;-59
2021/11/11 06:00:39;;;;;;;54.30;33.90;;;4.80;99.90;;;;;;4949650;29;20185;-58
2021/11/11 06:03:04;;;;;;;51.97;30.20;;;4.70;99.90;;;;;;4951073;29;20550;-60
2021/11/11 06:05:30;;;;;;;51.13;30.73;;;4.70;99.90;;;;;;4954625;29;20217;-59
2021/11/11 06:07:56;;;;;;;47.90;28.13;;;4.70;99.90;;;;;;4954649;29;20190;-59
2021/11/11 06:10:21;;;;;;;51.13;30.63;;;4.70;99.90;;;;;;4955311;29;20597;-59
2021/11/11 06:12:47;;;;;;;55.03;31.80;;;4.70;99.90;;;;;;4955045;29;20217;-60
2021/11/11 06:15:13;;;;;;;49.73;31.37;;;4.70;99.90;;;;;;4955234;29;20186;-59
2021/11/11 06:17:39;;;;;;;56.17;32.23;;;4.70;99.90;;;;;;4955239;29;20174;-59
2021/11/11 06:20:15;;;;;;;53.23;29.67;;;4.70;99.90;;;;;;4954952;29;20421;-59
2021/11/11 06:22:42;;;;;;;51.28;32.03;;;4.70;99.90;;;;;;4955238;29;20201;-60
2021/11/11 06:25:08;;;;;;;54.20;31.10;;;4.70;99.90;;;;;;4955098;29;20250;-60
2021/11/11 06:27:34;;;;;;;54.27;31.60;;;4.70;99.90;;;;;;4955024;29;20189;-60
2021/11/11 06:29:59;;;;;;;59.57;34.03;;;4.70;99.90;;;;;;4954947;29;20428;-59
2021/11/11 06:32:25;;;;;;;54.67;32.13;;;4.70;99.90;;;;;;4954816;29;20233;-57
2021/11/11 06:34:50;;;;;;;52.80;31.27;;;4.70;99.90;;;;;;4955038;29;20238;-59
2021/11/11 06:37:16;;;;;;;49.30;30.73;;;4.70;99.90;;;;;;4954971;29;20245;-60
2021/11/11 06:39:42;;;;;;;50.78;30.50;;;4.70;99.90;;;;;;4955022;29;20660;-60
2021/11/11 06:42:08;;;;;;;51.93;30.80;;;4.70;99.90;;;;;;4950115;29;20214;-60
2021/11/11 06:44:33;;;;;;;54.70;33.40;;;4.70;99.90;;;;;;4957753;28;20193;-60
2021/11/11 06:46:59;;;;;;;50.07;28.33;;;4.80;99.90;;;;;;4954820;29;20181;-60
2021/11/11 06:49:24;;;;;;;50.70;29.77;;;4.80;99.90;;;;;;4954389;29;20201;-60
2021/11/11 06:51:50;;;;;;;58.40;31.97;;;4.80;99.90;;;;;;4954100;29;20193;-60
2021/11/11 06:54:16;;;;;;;55.07;32.00;;;4.80;99.90;;;;;;4953040;29;20186;-60
2021/11/11 06:56:41;;;;;;;48.73;30.23;;;4.80;99.90;;;;;;4952612;29;20254;-59
2021/11/11 06:59:07;;;;;;;56.40;32.20;;;4.90;99.90;;;;;;4951803;28;20629;-60
2021/11/11 07:01:33;;;;;;;53.33;30.43;;;4.90;99.90;;;;;;4952799;29;20182;-60
2021/11/11 07:03:59;;;;;;;51.27;30.40;;;4.90;99.90;;;;;;4947281;29;20872;-60
2021/11/11 07:06:26;;;;;;;52.33;31.30;;;4.90;99.90;;;;;;4939588;29;20232;-62
2021/11/11 07:08:51;;;;;;;46.38;30.15;;;4.90;99.90;;;;;;4940547;29;20637;-62
2021/11/11 07:11:17;;;;;;;47.90;30.07;;;5.00;99.90;;;;;;4944896;29;20204;-51
2021/11/11 07:13:42;;;;;;;46.90;29.03;;;5.10;99.90;;;;;;4950694;29;20185;-64
2021/11/11 07:16:08;;;;;;;50.37;30.70;;;5.00;99.90;;;;;;4951163;29;20285;-62
2021/11/11 07:18:35;;;;;;;48.03;29.50;;;5.10;99.90;;;;;;4950227;29;20229;-63
2021/11/11 07:21:01;;;;;;;50.00;30.23;;;5.10;99.90;;;;;;4951585;28;20716;-62
2021/11/11 07:23:27;;;;;;;48.70;29.52;;;5.20;99.90;;;;;;4951970;29;20197;-64
2021/11/11 07:25:53;;;;;;;45.13;26.87;;;5.20;99.90;;;;;;4952310;29;20641;-62
2021/11/11 07:28:20;;;;;;;46.10;29.20;;;5.30;99.90;;;;;;4952220;29;20181;-63
2021/11/11 07:30:46;;;;;;;44.75;26.65;;;5.30;99.90;;;;;;4951758;29;20194;-63
2021/11/11 07:33:13;;;;;;;47.13;28.75;;;5.40;99.90;;;;;;4947270;29;20265;-63
2021/11/11 07:35:40;;;;;;;46.83;28.10;;;5.40;99.90;;;;;;4943583;29;20208;-61
2021/11/11 07:38:06;;;;;;;46.40;26.98;;;5.40;99.90;;;;;;4951347;29;20177;-52
2021/11/11 07:40:33;;;;;;;45.20;27.20;;;5.50;99.90;;;;;;4946408;29;20269;-60
2021/11/11 07:42:58;;;;;;;41.53;27.65;;;5.60;99.90;;;;;;4951272;29;20257;-57
2021/11/11 07:45:25;;;;;;;43.90;26.20;;;5.80;99.90;;;;;;4951056;29;20260;-59
2021/11/11 07:47:57;;;;;;;49.88;27.70;;;6.10;99.90;;;;;;4950218;29;20193;-61
2021/11/11 07:50:25;;;;;;;39.28;26.30;;;6.50;99.90;;;;;;4950950;29;20185;-61
2021/11/11 07:52:51;;;;;;;37.23;24.43;;;6.90;99.90;;;;;;4935567;29;20606;-60
2021/11/11 07:55:16;;;;;;;39.47;24.10;;;7.30;99.90;;;;;;4930263;29;20421;-59
2021/11/11 07:57:43;;;;;;;34.17;24.67;;;7.60;99.90;;;;;;4936556;29;20193;-60
2021/11/11 08:00:12;;;;;;;34.37;23.47;;;8.00;99.90;;;;;;4950281;29;20184;-60
2021/11/11 08:02:40;;;;;;;31.47;22.83;;;8.40;99.90;;;;;;4950589;29;20417;-60
2021/11/11 08:05:07;;;;;;;30.77;22.10;;;8.70;99.90;;;;;;4950936;29;20421;-60
2021/11/11 08:07:34;;;;;;;30.37;21.87;;;9.00;99.90;;;;;;4950316;29;20818;-60
2021/11/11 08:10:00;;;;;;;27.90;20.80;;;9.50;99.90;;;;;;4950374;28;20505;-61
2021/11/11 08:12:25;;;;;;;27.27;21.67;;;9.60;99.90;;;;;;4948073;29;20532;-61
2021/11/11 08:14:51;;;;;;;30.60;21.30;;;9.90;99.90;;;;;;4950795;29;20428;-58
2021/11/11 08:17:18;;;;;;;27.40;21.40;;;10.30;99.90;;;;;;4950755;29;20209;-57
2021/11/11 08:19:44;;;;;;;30.70;20.90;;;10.50;99.90;;;;;;4950941;29;20170;-63
2021/11/11 08:22:10;;;;;;;27.70;22.17;;;10.80;99.90;;;;;;4950436;29;20731;-60
2021/11/11 08:24:41;;;;;;;25.37;20.13;;;11.00;99.90;;;;;;4950908;29;20170;-63
2021/11/11 08:27:09;;;;;;;26.33;21.60;;;11.10;99.90;;;;;;4950947;29;20865;-61
2021/11/11 08:29:35;;;;;;;23.13;19.43;;;11.40;99.90;;;;;;4947778;29;20810;-58
2021/11/11 08:32:00;;;;;;;24.63;20.50;;;11.60;99.90;;;;;;4950801;29;20451;-62
2021/11/11 08:34:26;;;;;;;26.23;20.40;;;11.70;99.90;;;;;;4933849;29;20509;-60
2021/11/11 08:36:52;;;;;;;21.60;19.13;;;11.80;99.90;;;;;;4931362;29;20963;-63
2021/11/11 08:39:17;;;;;;;22.77;19.63;;;11.80;99.80;;;;;;4931463;29;20194;-61
2021/11/11 08:41:43;;;;;;;23.80;19.70;;;12.10;98.90;;;;;;4914761;29;20469;-64
2021/11/11 08:44:09;;;;;;;24.50;20.60;;;12.60;98.60;;;;;;4945496;28;20190;-62
2021/11/11 08:46:35;;;;;;;22.23;19.73;;;12.80;97.40;;;;;;4953632;28;20192;-63
2021/11/11 08:49:01;;;;;;;22.30;19.90;;;13.10;96.40;;;;;;4951770;28;20429;-63
2021/11/11 08:51:28;;;;;;;21.70;19.37;;;13.30;95.80;;;;;;4950554;29;20417;-61
2021/11/11 08:53:53;;;;;;;21.93;18.83;;;13.80;95.30;;;;;;4950385;29;20201;-61
2021/11/11 08:56:19;;;;;;;22.50;19.37;;;14.10;93.40;;;;;;4949939;29;20472;-63
2021/11/11 08:58:46;;;;;;;22.53;18.47;;;13.80;92.50;;;;;;4950386;29;20189;-61
2021/11/11 09:01:11;;;;;;;20.43;18.33;;;14.20;92.40;;;;;;4946480;29;20579;-61
2021/11/11 09:03:39;;;;;;;21.03;18.80;;;14.50;91.10;;;;;;4950356;29;20417;-61
2021/11/11 09:06:06;;;;;;;20.70;18.57;;;14.40;90.60;;;;;;4950397;29;20201;-61
2021/11/11 09:08:32;;;;;;;20.47;18.40;;;14.60;90.80;;;;;;4950273;29;20429;-61
2021/11/11 09:10:57;;;;;;;21.23;19.00;;;14.40;90.00;;;;;;4950131;29;20893;-61
2021/11/11 09:13:24;;;;;;;18.97;17.00;;;14.80;90.30;;;;;;4948116;29;20517;-61
2021/11/11 09:15:49;;;;;;;21.73;19.57;;;15.10;87.60;;;;;;4930852;29;20219;-61
2021/11/11 09:18:15;;;;;;;19.90;17.60;;;15.40;86.20;;;;;;4943002;29;20418;-61
2021/11/11 09:20:41;;;;;;;19.83;17.87;;;15.60;85.60;;;;;;4940425;29;20798;-61
2021/11/11 09:23:08;;;;;;;18.23;16.33;;;15.90;81.80;;;;;;4933840;29;20408;-61
2021/11/11 09:25:35;;;;;;;21.03;18.83;;;16.10;81.30;;;;;;4942674;29;20433;-61
2021/11/11 09:28:03;;;;;;;19.00;17.20;;;16.30;79.80;;;;;;4954088;29;20414;-60
2021/11/11 09:30:33;;;;;;;19.90;17.90;;;16.60;79.10;;;;;;4954197;29;20523;-61
2021/11/11 09:32:59;;;;;;;19.20;17.27;;;16.80;76.30;;;;;;4953804;29;20966;-60
2021/11/11 09:35:25;;;;;;;19.33;17.33;;;16.90;75.70;;;;;;4937557;29;20437;-52
2021/11/11 09:37:51;;;;;;;18.00;16.23;;;16.80;73.80;;;;;;4934861;29;20192;-61
2021/11/11 09:40:20;;;;;;;19.07;17.10;;;17.00;73.30;;;;;;4946223;29;20229;-61
2021/11/11 09:42:46;;;;;;;20.53;18.17;;;17.00;71.90;;;;;;4946965;29;20531;-61
2021/11/11 09:45:15;;;;;;;19.07;17.17;;;16.70;72.10;;;;;;4943425;29;20482;-61
2021/11/11 09:47:44;;;;;;;19.10;17.10;;;16.80;71.80;;;;;;4953565;29;20441;-61
2021/11/11 09:50:10;;;;;;;20.50;18.40;;;16.70;72.10;;;;;;4952220;29;20506;-61
2021/11/11 09:52:39;;;;;;;20.40;18.30;;;16.70;72.30;;;;;;4936079;29;21279;-62
2021/11/11 10:00:36;;;;;;;19.63;17.60;;;16.20;74.40;;;;;;4950574;29;20909;-62
2021/11/11 10:03:02;;;;;;;19.90;17.80;;;16.60;73.80;;;;;;4951918;29;20485;-62
2021/11/11 10:05:27;;;;;;;20.50;18.03;;;16.70;72.20;;;;;;4952561;29;20503;-61
2021/11/11 10:07:53;;;;;;;20.07;18.07;;;17.00;72.10;;;;;;4953359;29;20188;-62
2021/11/11 10:10:37;;;;;;;19.70;17.33;;;17.10;69.00;;;;;;4952535;29;20172;-61
2021/11/11 10:13:18;;;;;;;19.70;17.70;;;16.80;71.10;;;;;;4953431;29;20210;-62
2021/11/11 10:16:10;;;;;;;20.00;18.20;;;16.90;71.10;;;;;;4934863;29;20499;-62
2021/11/11 10:18:48;;;;;;;19.03;17.07;;;16.90;70.70;;;;;;4953092;29;20415;-61
2021/11/11 10:22:27;;;;;;;19.60;17.57;;;17.20;71.50;;;;;;4952230;29;20437;-61
2021/11/11 10:24:46;;;;;;;19.70;17.67;;;17.00;70.20;;;;;;4935535;29;20429;-61
2021/11/11 10:27:24;;;;;;;19.83;17.83;;;17.30;69.60;;;;;;4952203;29;20467;-61
2021/11/11 10:30:05;;;;;;;18.37;16.43;;;17.40;69.30;;;;;;4952508;29;20963;-60
2021/11/11 10:32:33;;;;;;;19.30;17.40;;;17.40;68.40;;;;;;4951402;29;20468;-62
2021/11/11 10:35:04;;;;;;;20.37;18.20;;;17.00;69.90;;;;;;4933181;29;20489;-53
2021/11/11 10:37:37;;;;;;;19.57;17.77;;;16.80;71.60;;;;;;4952409;29;20515;-61
2021/11/11 10:40:14;;;;;;;20.17;18.17;;;16.90;70.90;;;;;;4952017;29;20413;-60
2021/11/11 10:42:42;;;;;;;20.80;18.63;;;17.20;69.80;;;;;;4940377;29;21091;-61
2021/11/11 10:45:12;;;;;;;18.40;16.53;;;17.50;68.40;;;;;;4932196;29;20446;-60
2021/11/11 10:47:40;;;;;;;19.80;17.57;;;17.60;68.50;;;;;;4937750;29;20417;-61
2021/11/11 10:50:15;;;;;;;20.20;18.20;;;17.40;67.30;;;;;;4945814;28;20861;-61
2021/11/11 10:52:43;;;;;;;21.93;19.77;;;16.90;69.30;;;;;;4947182;28;20432;-61
2021/11/11 10:55:16;;;;;;;19.40;17.40;;;16.60;69.60;;;;;;4951375;29;20900;-61
2021/11/11 10:57:51;;;;;;;19.00;17.10;;;16.90;69.60;;;;;;4941882;29;20462;-61
2021/11/11 11:00:50;;;;;;;18.80;16.90;;;17.10;67.90;;;;;;4950879;29;20962;-61
2021/11/11 11:03:33;;;;;;;18.30;16.30;;;17.00;68.10;;;;;;4924743;29;20780;-61
2021/11/11 11:05:58;;;;;;;19.37;17.47;;;17.20;67.80;;;;;;4946219;29;20453;-61
2021/11/11 11:08:28;;;;;;;20.00;18.00;;;16.90;68.70;;;;;;4951396;29;20502;-61
2021/11/11 11:11:01;;;;;;;20.13;18.07;;;16.60;69.70;;;;;;4947834;29;20273;-56
2021/11/11 11:13:30;;;;;;;17.97;16.10;;;16.60;69.60;;;;;;4951492;29;20949;-61
2021/11/11 11:15:59;;;;;;;20.37;18.37;;;16.90;68.90;;;;;;4951848;29;20475;-56
2021/11/11 11:18:32;;;;;;;18.73;16.83;;;17.20;68.10;;;;;;4951685;29;20417;-60
2021/11/11 11:21:02;;;;;;;19.97;18.07;;;17.30;66.80;;;;;;4949551;29;20437;-59
2021/11/11 11:23:32;;;;;;;19.23;17.27;;;17.40;67.20;;;;;;4939234;29;20440;-60
2021/11/11 11:26:05;;;;;;;20.70;18.50;;;17.50;65.80;;;;;;4951015;29;20464;-61
2021/11/11 11:28:41;;;;;;;20.03;18.00;;;17.90;64.70;;;;;;4950612;29;20440;-61
2021/11/11 11:31:08;;;;;;;18.47;16.77;;;17.50;63.60;;;;;;4951306;29;20483;-60
2021/11/11 11:33:43;;;;;;;20.37;18.37;;;17.50;64.90;;;;;;4950364;29;21076;-60
2021/11/11 11:36:11;;;;;;;19.57;17.57;;;17.10;66.30;;;;;;4949469;29;20489;-61
2021/11/11 11:38:40;;;;;;;19.73;17.80;;;17.20;68.00;;;;;;4950553;29;20447;-60
2021/11/11 11:41:29;;;;;;;19.93;17.83;;;17.00;65.90;;;;;;4950829;29;20417;-60
2021/11/11 11:43:56;;;;;;;21.07;18.93;;;16.60;68.40;;;;;;4950680;29;20962;-60
2021/11/11 11:46:24;;;;;;;20.03;18.03;;;16.80;67.90;;;;;;4950155;28;21017;-59
2021/11/11 11:48:50;;;;;;;19.50;17.53;;;17.10;67.00;;;;;;4949888;29;20447;-56
2021/11/11 11:51:19;;;;;;;18.97;16.97;;;17.00;67.60;;;;;;4951243;29;20440;-60
2021/11/11 11:53:50;;;;;;;19.77;17.77;;;17.40;65.80;;;;;;4950360;29;20644;-61
2021/11/11 11:56:28;;;;;;;19.00;17.00;;;17.30;65.50;;;;;;4950958;29;20491;-60
2021/11/11 11:59:03;;;;;;;20.50;18.30;;;17.10;65.30;;;;;;4938231;29;20945;-62
2021/11/11 12:04:23;;;;;;;19.30;17.30;;;17.30;65.40;;;;;;4951125;29;20435;-62
2021/11/11 12:07:14;;;;;;;18.93;16.93;;;17.70;64.90;;;;;;4950477;29;20811;-62
2021/11/11 12:38:46;;;;;;;20.00;18.00;;;17.80;62.00;;;;;;4864922;29;20540;-59
2021/11/11 12:41:16;;;;;;;20.70;18.53;;;17.50;60.90;;;;;;4893770;29;20456;-62
2021/11/11 12:43:43;;;;;;;21.80;19.33;;;17.10;63.30;;;;;;4907483;29;20530;-62
2021/11/11 12:46:38;;;;;;;21.50;19.20;;;17.30;64.20;;;;;;4891267;29;20515;-62
2021/11/11 12:49:26;;;;;;;20.53;18.40;;;17.30;63.30;;;;;;4892296;29;21010;-59
2021/11/11 12:52:13;;;;;;;19.77;17.80;;;17.30;64.00;;;;;;4891235;29;20474;-60
2021/11/11 12:54:43;;;;;;;20.83;18.70;;;17.10;63.70;;;;;;4891595;29;20506;-60
2021/11/11 12:57:11;;;;;;;21.00;18.97;;;17.10;64.60;;;;;;4893029;29;20472;-61
2021/11/11 12:59:40;;;;;;;19.80;17.70;;;17.00;63.70;;;;;;4895415;29;20446;-61
2021/11/11 13:02:06;;;;;;;21.13;19.03;;;17.10;64.70;;;;;;4904414;29;20450;-60
2021/11/11 13:04:50;;;;;;;21.40;18.70;;;17.30;63.60;;;;;;4952262;29;20437;-61
2021/11/11 13:07:25;;;;;;;21.83;19.57;;;17.00;64.00;;;;;;4953951;29;20424;-60
2021/11/11 13:10:06;;;;;;;21.00;18.80;;;17.00;64.70;;;;;;4954138;29;20427;-61
2021/11/11 13:12:34;;;;;;;21.60;18.70;;;16.50;65.70;;;;;;4954164;29;20411;-60
2021/11/11 13:15:13;;;;;;;21.90;19.37;;;16.50;66.10;;;;;;4954183;29;20412;-63
2021/11/11 13:17:48;;;;;;;21.40;19.10;;;16.40;65.90;;;;;;4954201;29;20471;-60
2021/11/11 13:20:47;;;;;;;21.40;19.20;;;16.40;66.90;;;;;;4954114;29;20402;-56
2021/11/11 13:23:47;;;;;;;21.70;19.40;;;16.30;66.90;;;;;;4944749;28;20411;-60
2021/11/11 13:53:52;;;;;;;19.83;17.43;;;15.30;70.50;;;;;;4893881;29;20443;-61
2021/11/11 16:03:32;;;;;;;33.53;22.17;;;5.90;99.90;;;;;;5054366;28;20193;-61
2021/11/11 16:27:17;;;;;;;42.15;25.48;;;5.50;99.90;;;;;;5057069;28;20170;-61
2021/11/11 16:29:43;;;;;;;38.38;22.95;;;5.50;99.90;;;;;;5065742;28;20263;-60
2021/11/11 16:32:08;;;;;;;43.47;24.43;;;5.40;99.90;;;;;;5073755;28;20186;-61
2021/11/11 16:34:34;;;;;;;43.93;25.50;;;5.40;99.90;;;;;;5057252;28;20196;-59
2021/11/11 16:37:01;;;;;;;44.37;25.07;;;5.40;99.90;;;;;;5058223;28;20442;-60